sensor_id;sensor_type;location;lat;lon;timestamp;temperature;humidity
22442;DHT22;11388;54.456;9.752;2023-02-15T00:00:22;2.40;99.90
22442;DHT22;11388;54.456;9.752;2023-02-15T00:02:48;2.40;99.90
22442;DHT22;11388;54.456;9.752;2023-02-15T00:05:14;2.40;99.90
22442;DHT22;11388;54.456;9.752;2023-02-15T00:07:39;2.30;99.90
22442;DHT22;11388;54.456;9.752;2023-02-15T00:10:06;2.20;99.90
22442;DHT22;11388;54.456;9.752;2023-02-15T00:12:32;2.30;99.90
22442;DHT22;11388;54.456;9.752;2023-02-15T00:14:58;2.30;99.90
22442;DHT22;11388;54.456;9.752;2023-02-15T00:17:23;2.30;99.90
22442;DHT22;11388;54.456;9.752;2023-02-15T00:19:49;2.10;99.90
22442;DHT22;11388;54.456;9.752;2023-02-15T00:22:15;2.00;99.90
22442;DHT22;11388;54.456;9.752;2023-02-15T00:24:40;2.00;99.90
22442;DHT22;11388;54.456;9.752;2023-02-15T00:27:06;2.10;99.90
22442;DHT22;11388;54.456;9.752;2023-02-15T00:29:32;1.90;99.90
22442;DHT22;11388;54.456;9.752;2023-02-15T00:31:57;2.00;99.90
22442;DHT22;11388;54.456;9.752;2023-02-15T00:34:25;2.00;99.90
22442;DHT22;11388;54.456;9.752;2023-02-15T00:36:50;2.00;99.90
22442;DHT22;11388;54.456;9.752;2023-02-15T00:39:17;1.90;99.90
22442;DHT22;11388;54.456;9.752;2023-02-15T00:41:43;2.00;99.90
22442;DHT22;11388;54.456;9.752;2023-02-15T00:44:09;2.00;99.90
22442;DHT22;11388;54.456;9.752;2023-02-15T00:46:35;2.00;99.90
22442;DHT22;11388;54.456;9.752;2023-02-15T00:49:01;2.00;99.90
22442;DHT22;11388;54.456;9.752;2023-02-15T00:51:26;1.90;99.90
22442;DHT22;11388;54.456;9.752;2023-02-15T00:53:52;1.90;99.90
22442;DHT22;11388;54.456;9.752;2023-02-15T00:56:18;1.90;99.90
22442;DHT22;11388;54.456;9.752;2023-02-15T00:58:44;1.90;99.90
22442;DHT22;11388;54.456;9.752;2023-02-15T01:01:15;1.90;99.90
22442;DHT22;11388;54.456;9.752;2023-02-15T01:03:41;1.90;99.90
22442;DHT22;11388;54.456;9.752;2023-02-15T01:06:07;1.90;99.90
22442;DHT22;11388;54.456;9.752;2023-02-15T01:08:33;1.80;99.90
22442;DHT22;11388;54.456;9.752;2023-02-15T01:11:20;1.80;99.90
22442;DHT22;11388;54.456;9.752;2023-02-15T01:13:54;1.90;99.90
22442;DHT22;11388;54.456;9.752;2023-02-15T01:16:20;1.90;99.90
22442;DHT22;11388;54.456;9.752;2023-02-15T01:18:47;1.90;99.90
22442;DHT22;11388;54.456;9.752;2023-02-15T01:21:18;1.80;99.90
22442;DHT22;11388;54.456;9.752;2023-02-15T01:23:45;1.90;99.90
22442;DHT22;11388;54.456;9.752;2023-02-15T01:26:11;1.90;99.90
22442;DHT22;11388;54.456;9.752;2023-02-15T01:28:37;1.90;99.90
22442;DHT22;11388;54.456;9.752;2023-02-15T01:31:12;1.90;99.90
22442;DHT22;11388;54.456;9.752;2023-02-15T01:33:38;1.80;99.90
22442;DHT22;11388;54.456;9.752;2023-02-15T01:36:05;1.90;99.90
22442;DHT22;11388;54.456;9.752;2023-02-15T01:38:31;1.90;99.90
22442;DHT22;11388;54.456;9.752;2023-02-15T01:40:56;1.90;99.90
22442;DHT22;11388;54.456;9.752;2023-02-15T01:43:51;1.90;99.90
22442;DHT22;11388;54.456;9.752;2023-02-15T01:46:20;2.00;99.90
22442;DHT22;11388;54.456;9.752;2023-02-15T01:48:50;1.90;99.90
22442;DHT22;11388;54.456;9.752;2023-02-15T01:51:20;2.00;99.90
22442;DHT22;11388;54.456;9.752;2023-02-15T01:54:27;2.00;99.90
22442;DHT22;11388;54.456;9.752;2023-02-15T01:56:59;2.00;99.90
22442;DHT22;11388;54.456;9.752;2023-02-15T01:59:26;2.00;99.90
22442;DHT22;11388;54.456;9.752;2023-02-15T02:01:54;2.10;99.90
22442;DHT22;11388;54.456;9.752;2023-02-15T02:04:33;2.20;99.90
22442;DHT22;11388;54.456;9.752;2023-02-15T02:07:01;2.20;99.90
22442;DHT22;11388;54.456;9.752;2023-02-15T02:09:28;2.30;99.90
22442;DHT22;11388;54.456;9.752;2023-02-15T02:11:54;2.30;99.90
22442;DHT22;11388;54.456;9.752;2023-02-15T02:14:21;2.40;99.90
22442;DHT22;11388;54.456;9.752;2023-02-15T02:17:03;2.40;99.90
22442;DHT22;11388;54.456;9.752;2023-02-15T02:19:37;2.50;99.90
22442;DHT22;11388;54.456;9.752;2023-02-15T02:22:23;2.30;99.90
22442;DHT22;11388;54.456;9.752;2023-02-15T02:38:54;2.50;99.90
22442;DHT22;11388;54.456;9.752;2023-02-15T02:44:47;2.40;99.90
22442;DHT22;11388;54.456;9.752;2023-02-15T02:47:30;2.40;99.90
22442;DHT22;11388;54.456;9.752;2023-02-15T02:50:04;2.50;99.90
22442;DHT22;11388;54.456;9.752;2023-02-15T02:52:39;2.60;99.90
22442;DHT22;11388;54.456;9.752;2023-02-15T02:55:23;2.60;99.90
22442;DHT22;11388;54.456;9.752;2023-02-15T02:58:01;2.50;99.90
22442;DHT22;11388;54.456;9.752;2023-02-15T03:00:43;2.50;99.90
22442;DHT22;11388;54.456;9.752;2023-02-15T03:03:13;2.50;99.90
22442;DHT22;11388;54.456;9.752;2023-02-15T03:05:44;2.60;99.90
22442;DHT22;11388;54.456;9.752;2023-02-15T03:08:13;2.70;99.90
22442;DHT22;11388;54.456;9.752;2023-02-15T03:10:48;2.70;99.90
22442;DHT22;11388;54.456;9.752;2023-02-15T03:13:17;2.50;99.90
22442;DHT22;11388;54.456;9.752;2023-02-15T03:15:44;2.40;99.90
22442;DHT22;11388;54.456;9.752;2023-02-15T03:18:33;2.60;99.90
22442;DHT22;11388;54.456;9.752;2023-02-15T03:21:02;2.50;99.90
22442;DHT22;11388;54.456;9.752;2023-02-15T03:23:30;2.40;99.90
22442;DHT22;11388;54.456;9.752;2023-02-15T03:25:59;2.30;99.90
22442;DHT22;11388;54.456;9.752;2023-02-15T03:28:32;2.30;99.90
22442;DHT22;11388;54.456;9.752;2023-02-15T03:31:03;2.40;99.90
22442;DHT22;11388;54.456;9.752;2023-02-15T03:33:29;2.30;99.90
22442;DHT22;11388;54.456;9.752;2023-02-15T03:36:11;2.30;99.90
22442;DHT22;11388;54.456;9.752;2023-02-15T03:42:30;2.30;99.90
22442;DHT22;11388;54.456;9.752;2023-02-15T03:45:11;2.30;99.90
22442;DHT22;11388;54.456;9.752;2023-02-15T03:47:42;2.40;99.90
22442;DHT22;11388;54.456;9.752;2023-02-15T03:50:13;2.40;99.90
22442;DHT22;11388;54.456;9.752;2023-02-15T03:52:59;2.30;99.90
22442;DHT22;11388;54.456;9.752;2023-02-15T03:55:27;2.20;99.90
22442;DHT22;11388;54.456;9.752;2023-02-15T03:57:53;2.10;99.90
22442;DHT22;11388;54.456;9.752;2023-02-15T04:00:43;2.20;99.90
22442;DHT22;11388;54.456;9.752;2023-02-15T04:03:39;2.20;99.90
22442;DHT22;11388;54.456;9.752;2023-02-15T04:06:05;2.20;99.90
22442;DHT22;11388;54.456;9.752;2023-02-15T04:08:31;2.10;99.90
22442;DHT22;11388;54.456;9.752;2023-02-15T04:11:15;2.10;99.90
22442;DHT22;11388;54.456;9.752;2023-02-15T04:13:41;2.10;99.90
22442;DHT22;11388;54.456;9.752;2023-02-15T04:16:07;2.10;99.90
22442;DHT22;11388;54.456;9.752;2023-02-15T04:18:37;2.20;99.90
22442;DHT22;11388;54.456;9.752;2023-02-15T04:21:23;2.30;99.90
22442;DHT22;11388;54.456;9.752;2023-02-15T04:24:09;2.30;99.90
22442;DHT22;11388;54.456;9.752;2023-02-15T04:26:54;2.30;99.90
22442;DHT22;11388;54.456;9.752;2023-02-15T04:29:20;2.30;99.90
22442;DHT22;11388;54.456;9.752;2023-02-15T04:31:47;2.30;99.90
22442;DHT22;11388;54.456;9.752;2023-02-15T04:34:13;2.40;99.90
22442;DHT22;11388;54.456;9.752;2023-02-15T04:36:39;2.40;99.90
22442;DHT22;11388;54.456;9.752;2023-02-15T04:39:06;2.50;99.90
22442;DHT22;11388;54.456;9.752;2023-02-15T04:41:32;2.50;99.90
22442;DHT22;11388;54.456;9.752;2023-02-15T04:43:58;2.40;99.90
22442;DHT22;11388;54.456;9.752;2023-02-15T04:46:26;2.40;99.90
22442;DHT22;11388;54.456;9.752;2023-02-15T04:48:51;2.40;99.90
22442;DHT22;11388;54.456;9.752;2023-02-15T04:51:17;2.40;99.90
22442;DHT22;11388;54.456;9.752;2023-02-15T04:53:43;2.40;99.90
22442;DHT22;11388;54.456;9.752;2023-02-15T04:56:09;2.40;99.90
22442;DHT22;11388;54.456;9.752;2023-02-15T04:58:34;2.40;99.90
22442;DHT22;11388;54.456;9.752;2023-02-15T05:01:02;2.50;99.90
22442;DHT22;11388;54.456;9.752;2023-02-15T05:03:28;2.50;99.90
22442;DHT22;11388;54.456;9.752;2023-02-15T05:05:54;2.50;99.90
22442;DHT22;11388;54.456;9.752;2023-02-15T05:08:20;2.40;99.90
22442;DHT22;11388;54.456;9.752;2023-02-15T05:10:48;2.20;99.90
22442;DHT22;11388;54.456;9.752;2023-02-15T05:13:14;2.00;99.90
22442;DHT22;11388;54.456;9.752;2023-02-15T05:15:40;2.00;99.90
22442;DHT22;11388;54.456;9.752;2023-02-15T05:18:05;2.00;99.90
22442;DHT22;11388;54.456;9.752;2023-02-15T05:20:32;2.00;99.90
22442;DHT22;11388;54.456;9.752;2023-02-15T05:22:58;2.20;99.90
22442;DHT22;11388;54.456;9.752;2023-02-15T05:25:24;2.10;99.90
22442;DHT22;11388;54.456;9.752;2023-02-15T05:28:10;2.20;99.90
22442;DHT22;11388;54.456;9.752;2023-02-15T05:31:00;2.00;99.90
22442;DHT22;11388;54.456;9.752;2023-02-15T05:33:27;2.00;99.90
22442;DHT22;11388;54.456;9.752;2023-02-15T05:35:52;2.00;99.90
22442;DHT22;11388;54.456;9.752;2023-02-15T05:38:18;2.00;99.90
22442;DHT22;11388;54.456;9.752;2023-02-15T05:40:44;2.00;99.90
22442;DHT22;11388;54.456;9.752;2023-02-15T05:43:09;2.00;99.90
22442;DHT22;11388;54.456;9.752;2023-02-15T05:45:35;1.90;99.90
22442;DHT22;11388;54.456;9.752;2023-02-15T05:48:01;1.90;99.90
22442;DHT22;11388;54.456;9.752;2023-02-15T05:50:26;1.90;99.90
22442;DHT22;11388;54.456;9.752;2023-02-15T05:52:52;2.00;99.90
22442;DHT22;11388;54.456;9.752;2023-02-15T05:55:18;2.00;99.90
22442;DHT22;11388;54.456;9.752;2023-02-15T05:57:44;1.80;99.90
22442;DHT22;11388;54.456;9.752;2023-02-15T06:00:10;1.90;99.90
22442;DHT22;11388;54.456;9.752;2023-02-15T06:02:36;2.00;99.90
22442;DHT22;11388;54.456;9.752;2023-02-15T06:05:04;2.00;99.90
22442;DHT22;11388;54.456;9.752;2023-02-15T06:07:30;1.90;99.90
22442;DHT22;11388;54.456;9.752;2023-02-15T06:09:55;2.00;99.90
22442;DHT22;11388;54.456;9.752;2023-02-15T06:12:21;2.00;99.90
22442;DHT22;11388;54.456;9.752;2023-02-15T06:14:47;2.10;99.90
22442;DHT22;11388;54.456;9.752;2023-02-15T06:17:12;2.00;99.90
22442;DHT22;11388;54.456;9.752;2023-02-15T06:19:38;2.10;99.90
22442;DHT22;11388;54.456;9.752;2023-02-15T06:22:04;2.20;99.90
22442;DHT22;11388;54.456;9.752;2023-02-15T06:24:29;2.20;99.90
22442;DHT22;11388;54.456;9.752;2023-02-15T06:26:55;2.20;99.90
22442;DHT22;11388;54.456;9.752;2023-02-15T06:29:20;2.20;99.90
22442;DHT22;11388;54.456;9.752;2023-02-15T06:31:46;2.10;99.90
22442;DHT22;11388;54.456;9.752;2023-02-15T06:34:12;2.00;99.90
22442;DHT22;11388;54.456;9.752;2023-02-15T06:36:37;2.00;99.90
22442;DHT22;11388;54.456;9.752;2023-02-15T06:39:03;2.00;99.90
22442;DHT22;11388;54.456;9.752;2023-02-15T06:41:29;2.00;99.90
22442;DHT22;11388;54.456;9.752;2023-02-15T06:43:55;2.00;99.90
22442;DHT22;11388;54.456;9.752;2023-02-15T06:46:21;2.10;99.90
22442;DHT22;11388;54.456;9.752;2023-02-15T06:48:46;2.10;99.90
22442;DHT22;11388;54.456;9.752;2023-02-15T06:51:12;2.00;99.90
22442;DHT22;11388;54.456;9.752;2023-02-15T06:53:38;2.10;99.90
22442;DHT22;11388;54.456;9.752;2023-02-15T06:56:07;2.10;99.90
22442;DHT22;11388;54.456;9.752;2023-02-15T06:58:38;2.10;99.90
22442;DHT22;11388;54.456;9.752;2023-02-15T07:01:04;2.10;99.90
22442;DHT22;11388;54.456;9.752;2023-02-15T07:03:31;2.00;99.90
22442;DHT22;11388;54.456;9.752;2023-02-15T07:05:58;2.10;99.90
22442;DHT22;11388;54.456;9.752;2023-02-15T07:08:25;2.00;99.90
22442;DHT22;11388;54.456;9.752;2023-02-15T07:10:52;2.00;99.90
22442;DHT22;11388;54.456;9.752;2023-02-15T07:13:18;1.90;99.90
22442;DHT22;11388;54.456;9.752;2023-02-15T07:15:46;2.00;99.90
22442;DHT22;11388;54.456;9.752;2023-02-15T07:18:11;2.00;99.90
22442;DHT22;11388;54.456;9.752;2023-02-15T07:20:38;2.00;99.90
22442;DHT22;11388;54.456;9.752;2023-02-15T07:23:05;2.00;99.90
22442;DHT22;11388;54.456;9.752;2023-02-15T07:25:31;2.00;99.90
22442;DHT22;11388;54.456;9.752;2023-02-15T07:28:01;2.00;99.90
22442;DHT22;11388;54.456;9.752;2023-02-15T07:30:28;2.00;99.90
22442;DHT22;11388;54.456;9.752;2023-02-15T07:32:57;2.00;99.90
22442;DHT22;11388;54.456;9.752;2023-02-15T07:35:58;2.00;99.90
22442;DHT22;11388;54.456;9.752;2023-02-15T07:38:26;2.20;99.90
22442;DHT22;11388;54.456;9.752;2023-02-15T07:40:51;2.20;99.90
22442;DHT22;11388;54.456;9.752;2023-02-15T07:43:22;2.10;99.90
22442;DHT22;11388;54.456;9.752;2023-02-15T07:45:48;2.20;99.90
22442;DHT22;11388;54.456;9.752;2023-02-15T07:48:14;2.20;99.90
22442;DHT22;11388;54.456;9.752;2023-02-15T07:50:39;2.30;99.90
22442;DHT22;11388;54.456;9.752;2023-02-15T07:53:05;2.20;99.90
22442;DHT22;11388;54.456;9.752;2023-02-15T07:55:31;2.10;99.90
22442;DHT22;11388;54.456;9.752;2023-02-15T07:57:56;2.20;99.90
22442;DHT22;11388;54.456;9.752;2023-02-15T08:00:22;2.10;99.90
22442;DHT22;11388;54.456;9.752;2023-02-15T08:02:53;2.10;99.90
22442;DHT22;11388;54.456;9.752;2023-02-15T08:05:41;2.20;99.90
22442;DHT22;11388;54.456;9.752;2023-02-15T08:08:08;2.10;99.90
22442;DHT22;11388;54.456;9.752;2023-02-15T08:10:35;2.10;99.90
22442;DHT22;11388;54.456;9.752;2023-02-15T08:13:19;2.10;99.90
22442;DHT22;11388;54.456;9.752;2023-02-15T08:15:51;2.20;99.90
22442;DHT22;11388;54.456;9.752;2023-02-15T08:18:17;2.10;99.90
22442;DHT22;11388;54.456;9.752;2023-02-15T08:20:49;2.10;99.90
22442;DHT22;11388;54.456;9.752;2023-02-15T08:23:15;2.10;99.90
22442;DHT22;11388;54.456;9.752;2023-02-15T08:25:40;2.20;99.90
22442;DHT22;11388;54.456;9.752;2023-02-15T08:28:06;2.30;99.90
22442;DHT22;11388;54.456;9.752;2023-02-15T08:30:32;2.30;99.90
22442;DHT22;11388;54.456;9.752;2023-02-15T08:32:57;2.20;99.90
22442;DHT22;11388;54.456;9.752;2023-02-15T08:35:24;2.30;99.90
22442;DHT22;11388;54.456;9.752;2023-02-15T08:37:49;2.40;99.90
22442;DHT22;11388;54.456;9.752;2023-02-15T08:40:16;2.50;99.90
22442;DHT22;11388;54.456;9.752;2023-02-15T08:42:42;2.40;99.90
22442;DHT22;11388;54.456;9.752;2023-02-15T08:45:08;2.50;99.90
22442;DHT22;11388;54.456;9.752;2023-02-15T08:47:33;2.50;99.90
22442;DHT22;11388;54.456;9.752;2023-02-15T08:49:59;2.60;99.90
22442;DHT22;11388;54.456;9.752;2023-02-15T08:52:25;2.60;99.90
22442;DHT22;11388;54.456;9.752;2023-02-15T08:54:50;2.60;99.90
22442;DHT22;11388;54.456;9.752;2023-02-15T08:57:16;2.70;99.90
22442;DHT22;11388;54.456;9.752;2023-02-15T08:59:42;2.80;99.90
22442;DHT22;11388;54.456;9.752;2023-02-15T09:02:09;2.90;99.90
22442;DHT22;11388;54.456;9.752;2023-02-15T09:04:35;2.60;99.90
22442;DHT22;11388;54.456;9.752;2023-02-15T09:07:01;2.60;99.90
22442;DHT22;11388;54.456;9.752;2023-02-15T09:09:27;2.60;99.90
22442;DHT22;11388;54.456;9.752;2023-02-15T09:11:53;2.60;99.90
22442;DHT22;11388;54.456;9.752;2023-02-15T09:14:19;2.60;99.90
22442;DHT22;11388;54.456;9.752;2023-02-15T09:16:47;2.70;99.90
22442;DHT22;11388;54.456;9.752;2023-02-15T09:19:14;2.60;99.90
22442;DHT22;11388;54.456;9.752;2023-02-15T09:21:40;2.60;99.90
22442;DHT22;11388;54.456;9.752;2023-02-15T09:24:09;2.70;99.90
22442;DHT22;11388;54.456;9.752;2023-02-15T09:26:38;2.90;99.90
22442;DHT22;11388;54.456;9.752;2023-02-15T09:29:06;3.00;99.90
22442;DHT22;11388;54.456;9.752;2023-02-15T09:31:38;2.80;99.90
22442;DHT22;11388;54.456;9.752;2023-02-15T09:34:04;2.70;99.90
22442;DHT22;11388;54.456;9.752;2023-02-15T09:36:35;2.90;99.90
22442;DHT22;11388;54.456;9.752;2023-02-15T09:39:10;3.00;99.90
22442;DHT22;11388;54.456;9.752;2023-02-15T09:55:12;3.20;99.90
22442;DHT22;11388;54.456;9.752;2023-02-15T10:04:07;3.40;99.90
22442;DHT22;11388;54.456;9.752;2023-02-15T10:06:30;3.30;99.90
22442;DHT22;11388;54.456;9.752;2023-02-15T10:09:26;3.20;99.90
22442;DHT22;11388;54.456;9.752;2023-02-15T10:20:31;3.30;99.90
22442;DHT22;11388;54.456;9.752;2023-02-15T10:28:06;3.40;99.90
22442;DHT22;11388;54.456;9.752;2023-02-15T10:33:22;3.60;99.90
22442;DHT22;11388;54.456;9.752;2023-02-15T10:38:50;3.90;99.90
22442;DHT22;11388;54.456;9.752;2023-02-15T11:05:17;3.90;99.90
22442;DHT22;11388;54.456;9.752;2023-02-15T11:07:47;3.90;99.90
22442;DHT22;11388;54.456;9.752;2023-02-15T11:10:35;3.90;99.90
22442;DHT22;11388;54.456;9.752;2023-02-15T11:13:23;4.00;99.90
22442;DHT22;11388;54.456;9.752;2023-02-15T11:16:58;4.10;99.90
22442;DHT22;11388;54.456;9.752;2023-02-15T11:18:59;4.00;99.90
22442;DHT22;11388;54.456;9.752;2023-02-15T11:21:41;4.20;99.90
22442;DHT22;11388;54.456;9.752;2023-02-15T11:24:19;4.40;99.90
22442;DHT22;11388;54.456;9.752;2023-02-15T11:26:53;4.20;99.90
22442;DHT22;11388;54.456;9.752;2023-02-15T11:34:36;4.50;99.90
22442;DHT22;11388;54.456;9.752;2023-02-15T11:37:10;4.20;99.90
22442;DHT22;11388;54.456;9.752;2023-02-15T11:39:36;4.20;99.90
22442;DHT22;11388;54.456;9.752;2023-02-15T11:42:09;4.10;99.90
22442;DHT22;11388;54.456;9.752;2023-02-15T11:44:44;4.00;99.90
22442;DHT22;11388;54.456;9.752;2023-02-15T11:47:12;4.00;99.90
22442;DHT22;11388;54.456;9.752;2023-02-15T11:49:38;4.20;99.90
22442;DHT22;11388;54.456;9.752;2023-02-15T11:52:12;4.10;99.90
22442;DHT22;11388;54.456;9.752;2023-02-15T11:54:43;4.10;99.90
22442;DHT22;11388;54.456;9.752;2023-02-15T11:57:37;4.20;99.90
22442;DHT22;11388;54.456;9.752;2023-02-15T12:00:34;4.40;99.90
22442;DHT22;11388;54.456;9.752;2023-02-15T12:03:07;4.70;99.90
22442;DHT22;11388;54.456;9.752;2023-02-15T12:05:36;4.70;99.90
22442;DHT22;11388;54.456;9.752;2023-02-15T12:08:17;4.60;99.90
22442;DHT22;11388;54.456;9.752;2023-02-15T12:13:20;4.80;99.90
22442;DHT22;11388;54.456;9.752;2023-02-15T12:15:48;4.80;99.90
22442;DHT22;11388;54.456;9.752;2023-02-15T12:20:52;4.90;99.90
22442;DHT22;11388;54.456;9.752;2023-02-15T12:23:18;4.90;99.90
22442;DHT22;11388;54.456;9.752;2023-02-15T12:25:54;4.80;99.90
22442;DHT22;11388;54.456;9.752;2023-02-15T12:30:50;4.90;99.90
22442;DHT22;11388;54.456;9.752;2023-02-15T12:33:32;4.90;99.90
22442;DHT22;11388;54.456;9.752;2023-02-15T12:36:16;4.80;99.90
22442;DHT22;11388;54.456;9.752;2023-02-15T12:38:43;4.90;99.90
22442;DHT22;11388;54.456;9.752;2023-02-15T12:41:26;5.10;99.90
22442;DHT22;11388;54.456;9.752;2023-02-15T12:44:16;5.00;99.90
22442;DHT22;11388;54.456;9.752;2023-02-15T12:47:02;4.90;99.90
22442;DHT22;11388;54.456;9.752;2023-02-15T12:49:37;5.00;99.90
22442;DHT22;11388;54.456;9.752;2023-02-15T12:52:24;5.10;99.90
22442;DHT22;11388;54.456;9.752;2023-02-15T12:54:51;5.30;99.90
22442;DHT22;11388;54.456;9.752;2023-02-15T12:59:59;5.40;99.90
22442;DHT22;11388;54.456;9.752;2023-02-15T13:02:49;5.50;99.90
22442;DHT22;11388;54.456;9.752;2023-02-15T13:07:46;5.60;99.90
22442;DHT22;11388;54.456;9.752;2023-02-15T13:10:29;5.60;99.90
22442;DHT22;11388;54.456;9.752;2023-02-15T13:12:57;5.50;99.90
22442;DHT22;11388;54.456;9.752;2023-02-15T13:17:57;5.50;99.90
22442;DHT22;11388;54.456;9.752;2023-02-15T13:20:23;5.50;99.90
22442;DHT22;11388;54.456;9.752;2023-02-15T13:22:58;5.60;99.90
22442;DHT22;11388;54.456;9.752;2023-02-15T13:25:26;5.70;99.90
22442;DHT22;11388;54.456;9.752;2023-02-15T13:28:03;5.80;99.90
22442;DHT22;11388;54.456;9.752;2023-02-15T13:30:35;5.70;99.90
22442;DHT22;11388;54.456;9.752;2023-02-15T13:33:05;5.60;99.90
22442;DHT22;11388;54.456;9.752;2023-02-15T13:35:47;5.70;99.90
22442;DHT22;11388;54.456;9.752;2023-02-15T13:41:12;5.70;99.90
22442;DHT22;11388;54.456;9.752;2023-02-15T13:46:39;5.80;99.90
22442;DHT22;11388;54.456;9.752;2023-02-15T13:52:41;5.80;99.90
22442;DHT22;11388;54.456;9.752;2023-02-15T14:02:38;5.80;99.90
22442;DHT22;11388;54.456;9.752;2023-02-15T14:18:56;6.00;99.90
22442;DHT22;11388;54.456;9.752;2023-02-15T14:21:29;6.00;99.90
22442;DHT22;11388;54.456;9.752;2023-02-15T14:25:17;6.00;99.90
22442;DHT22;11388;54.456;9.752;2023-02-15T14:27:24;6.10;99.90
22442;DHT22;11388;54.456;9.752;2023-02-15T14:29:59;6.10;99.90
22442;DHT22;11388;54.456;9.752;2023-02-15T14:35:24;6.10;99.90
22442;DHT22;11388;54.456;9.752;2023-02-15T14:38:31;6.20;99.90
22442;DHT22;11388;54.456;9.752;2023-02-15T14:41:15;6.20;99.90
22442;DHT22;11388;54.456;9.752;2023-02-15T14:44:05;6.40;99.90
22442;DHT22;11388;54.456;9.752;2023-02-15T14:46:56;6.10;99.90
22442;DHT22;11388;54.456;9.752;2023-02-15T14:49:31;6.20;99.90
22442;DHT22;11388;54.456;9.752;2023-02-15T14:52:02;6.20;99.90
22442;DHT22;11388;54.456;9.752;2023-02-15T15:05:47;5.90;99.90
22442;DHT22;11388;54.456;9.752;2023-02-15T15:07:54;5.90;99.90
22442;DHT22;11388;54.456;9.752;2023-02-15T15:12:53;5.90;99.90
22442;DHT22;11388;54.456;9.752;2023-02-15T15:18:05;5.90;99.90
22442;DHT22;11388;54.456;9.752;2023-02-15T15:20:48;5.80;99.90
22442;DHT22;11388;54.456;9.752;2023-02-15T15:34:18;5.70;99.90
22442;DHT22;11388;54.456;9.752;2023-02-15T15:40:00;5.80;99.90
22442;DHT22;11388;54.456;9.752;2023-02-15T15:48:29;5.90;99.90
22442;DHT22;11388;54.456;9.752;2023-02-15T15:51:35;5.90;99.90
22442;DHT22;11388;54.456;9.752;2023-02-15T15:54:02;5.70;99.90
22442;DHT22;11388;54.456;9.752;2023-02-15T15:56:31;5.80;99.90
22442;DHT22;11388;54.456;9.752;2023-02-15T15:59:01;5.70;99.90
22442;DHT22;11388;54.456;9.752;2023-02-15T16:01:30;5.60;99.90
22442;DHT22;11388;54.456;9.752;2023-02-15T16:03:58;5.60;99.90
22442;DHT22;11388;54.456;9.752;2023-02-15T16:06:32;5.60;99.90
22442;DHT22;11388;54.456;9.752;2023-02-15T16:09:20;5.70;99.90
22442;DHT22;11388;54.456;9.752;2023-02-15T16:11:55;5.50;99.90
22442;DHT22;11388;54.456;9.752;2023-02-15T16:14:29;5.50;99.90
22442;DHT22;11388;54.456;9.752;2023-02-15T16:16:58;5.50;99.90
22442;DHT22;11388;54.456;9.752;2023-02-15T16:19:31;5.60;99.90
22442;DHT22;11388;54.456;9.752;2023-02-15T16:21:59;5.50;99.90
22442;DHT22;11388;54.456;9.752;2023-02-15T16:27:42;5.40;99.90
22442;DHT22;11388;54.456;9.752;2023-02-15T16:30:32;5.50;99.90
22442;DHT22;11388;54.456;9.752;2023-02-15T16:33:13;5.40;99.90
22442;DHT22;11388;54.456;9.752;2023-02-15T16:35:57;5.50;99.90
22442;DHT22;11388;54.456;9.752;2023-02-15T16:41:13;5.40;99.90
22442;DHT22;11388;54.456;9.752;2023-02-15T16:43:40;5.50;99.90
22442;DHT22;11388;54.456;9.752;2023-02-15T16:46:11;5.50;99.90
22442;DHT22;11388;54.456;9.752;2023-02-15T16:48:41;5.40;99.90
22442;DHT22;11388;54.456;9.752;2023-02-15T16:51:08;5.50;99.90
22442;DHT22;11388;54.456;9.752;2023-02-15T16:53:35;5.40;99.90
22442;DHT22;11388;54.456;9.752;2023-02-15T16:56:04;5.50;99.90
22442;DHT22;11388;54.456;9.752;2023-02-15T16:58:44;5.30;99.90
22442;DHT22;11388;54.456;9.752;2023-02-15T17:01:13;5.50;99.90
22442;DHT22;11388;54.456;9.752;2023-02-15T17:03:41;5.50;99.90
22442;DHT22;11388;54.456;9.752;2023-02-15T17:06:26;5.60;99.90
22442;DHT22;11388;54.456;9.752;2023-02-15T17:09:04;5.50;99.90
22442;DHT22;11388;54.456;9.752;2023-02-15T17:11:41;5.60;99.90
22442;DHT22;11388;54.456;9.752;2023-02-15T17:16:43;5.50;99.90
22442;DHT22;11388;54.456;9.752;2023-02-15T17:19:17;5.40;99.90
22442;DHT22;11388;54.456;9.752;2023-02-15T17:21:56;5.50;99.90
22442;DHT22;11388;54.456;9.752;2023-02-15T17:24:37;5.40;99.90
22442;DHT22;11388;54.456;9.752;2023-02-15T17:27:18;5.40;99.90
22442;DHT22;11388;54.456;9.752;2023-02-15T17:29:57;5.40;99.90
22442;DHT22;11388;54.456;9.752;2023-02-15T17:32:26;5.40;99.90
22442;DHT22;11388;54.456;9.752;2023-02-15T17:35:21;5.30;99.90
22442;DHT22;11388;54.456;9.752;2023-02-15T17:37:49;5.50;99.90
22442;DHT22;11388;54.456;9.752;2023-02-15T17:40:24;5.50;99.90
22442;DHT22;11388;54.456;9.752;2023-02-15T17:42:51;5.40;99.90
22442;DHT22;11388;54.456;9.752;2023-02-15T17:45:17;5.30;99.90
22442;DHT22;11388;54.456;9.752;2023-02-15T17:47:43;5.40;99.90
22442;DHT22;11388;54.456;9.752;2023-02-15T17:50:22;5.30;99.90
22442;DHT22;11388;54.456;9.752;2023-02-15T17:52:49;5.30;99.90
22442;DHT22;11388;54.456;9.752;2023-02-15T17:55:17;5.30;99.90
22442;DHT22;11388;54.456;9.752;2023-02-15T17:58:08;5.40;99.90
22442;DHT22;11388;54.456;9.752;2023-02-15T18:00:37;5.20;99.90
22442;DHT22;11388;54.456;9.752;2023-02-15T18:03:22;5.00;99.90
22442;DHT22;11388;54.456;9.752;2023-02-15T18:06:06;5.30;99.90
22442;DHT22;11388;54.456;9.752;2023-02-15T18:08:50;5.30;99.90
22442;DHT22;11388;54.456;9.752;2023-02-15T18:11:34;5.30;99.90
22442;DHT22;11388;54.456;9.752;2023-02-15T18:14:05;5.10;99.90
22442;DHT22;11388;54.456;9.752;2023-02-15T18:16:36;5.10;99.90
22442;DHT22;11388;54.456;9.752;2023-02-15T18:19:04;5.10;99.90
22442;DHT22;11388;54.456;9.752;2023-02-15T18:21:31;5.10;99.90
22442;DHT22;11388;54.456;9.752;2023-02-15T18:23:57;5.00;99.90
22442;DHT22;11388;54.456;9.752;2023-02-15T18:26:24;5.20;99.90
22442;DHT22;11388;54.456;9.752;2023-02-15T18:28:51;5.10;99.90
22442;DHT22;11388;54.456;9.752;2023-02-15T18:31:17;5.10;99.90
22442;DHT22;11388;54.456;9.752;2023-02-15T18:33:49;5.00;99.90
22442;DHT22;11388;54.456;9.752;2023-02-15T18:36:35;5.20;99.90
22442;DHT22;11388;54.456;9.752;2023-02-15T18:39:05;5.00;99.90
22442;DHT22;11388;54.456;9.752;2023-02-15T18:41:37;5.00;99.90
22442;DHT22;11388;54.456;9.752;2023-02-15T18:44:02;5.20;99.90
22442;DHT22;11388;54.456;9.752;2023-02-15T18:46:28;4.90;99.90
22442;DHT22;11388;54.456;9.752;2023-02-15T18:48:54;5.20;99.90
22442;DHT22;11388;54.456;9.752;2023-02-15T18:51:21;5.20;99.90
22442;DHT22;11388;54.456;9.752;2023-02-15T18:53:50;5.00;99.90
22442;DHT22;11388;54.456;9.752;2023-02-15T18:56:18;5.20;99.90
22442;DHT22;11388;54.456;9.752;2023-02-15T18:58:44;4.90;99.90
22442;DHT22;11388;54.456;9.752;2023-02-15T19:01:18;5.00;99.90
22442;DHT22;11388;54.456;9.752;2023-02-15T19:03:49;5.00;99.90
22442;DHT22;11388;54.456;9.752;2023-02-15T19:06:17;5.00;99.90
22442;DHT22;11388;54.456;9.752;2023-02-15T19:08:45;5.10;99.90
22442;DHT22;11388;54.456;9.752;2023-02-15T19:11:21;5.00;99.90
22442;DHT22;11388;54.456;9.752;2023-02-15T19:13:49;5.40;99.90